createdAt,value
2018-11-14T00:00:29.271Z,3.40
2018-11-14T00:02:59.908Z,4.93
2018-11-14T00:05:29.142Z,5.00
2018-11-14T00:07:58.111Z,4.30
2018-11-14T00:10:27.627Z,7.97
2018-11-14T00:12:56.136Z,6.30
2018-11-14T00:15:26.138Z,5.40
2018-11-14T00:17:55.488Z,3.33
2018-11-14T00:20:24.295Z,5.90
2018-11-14T00:22:53.767Z,5.03
2018-11-14T00:25:22.949Z,3.83
2018-11-14T00:27:52.471Z,3.40
2018-11-14T00:30:24.078Z,5.83
2018-11-14T00:32:52.705Z,8.53
2018-11-14T00:35:22.294Z,4.40
2018-11-14T00:37:51.519Z,4.17
2018-11-14T00:40:21.466Z,8.70
2018-11-14T00:42:51.190Z,10.13
2018-11-14T00:45:21.444Z,5.70
2018-11-14T00:47:51.720Z,6.77
2018-11-14T00:50:21.757Z,6.00
2018-11-14T00:52:50.709Z,3.77
2018-11-14T00:55:21.000Z,3.50
2018-11-14T00:57:51.060Z,4.33
2018-11-14T01:00:24.141Z,5.17
2018-11-14T01:02:53.180Z,6.87
2018-11-14T01:05:23.031Z,13.67
2018-11-14T01:07:51.868Z,6.83
2018-11-14T01:10:21.737Z,4.80
2018-11-14T01:12:51.585Z,5.17
2018-11-14T01:15:22.212Z,8.03
2018-11-14T01:17:51.667Z,15.60
2018-11-14T01:20:21.614Z,3.70
2018-11-14T01:22:51.294Z,3.80
2018-11-14T01:25:20.288Z,10.43
2018-11-14T01:27:49.127Z,3.97
2018-11-14T01:30:23.058Z,5.70
2018-11-14T01:32:52.400Z,3.93
2018-11-14T01:35:21.915Z,8.43
2018-11-14T01:37:50.762Z,13.20
2018-11-14T01:40:22.333Z,9.13
2018-11-14T01:42:52.627Z,4.90
2018-11-14T01:45:21.282Z,5.23
2018-11-14T01:47:50.770Z,9.60
2018-11-14T01:50:19.674Z,4.87
2018-11-14T01:52:48.409Z,8.00
2018-11-14T01:55:18.164Z,8.53
2018-11-14T01:57:46.999Z,10.23
2018-11-14T02:00:18.754Z,6.40
2018-11-14T02:02:54.208Z,10.63
2018-11-14T02:05:23.020Z,8.47
2018-11-14T02:07:51.968Z,9.37
2018-11-14T02:10:21.329Z,5.77
2018-11-14T02:12:50.373Z,10.97
2018-11-14T02:15:20.685Z,7.23
2018-11-14T02:17:50.182Z,7.17
2018-11-14T02:20:18.943Z,7.00
2018-11-14T02:22:48.208Z,12.97
2018-11-14T02:25:17.968Z,12.50
2018-11-14T02:27:48.583Z,6.43
2018-11-14T02:30:21.232Z,8.63
2018-11-14T02:32:50.307Z,13.63
2018-11-14T02:35:18.977Z,5.37
2018-11-14T02:37:48.297Z,10.10
2018-11-14T02:40:19.114Z,5.10
2018-11-14T02:42:47.842Z,16.20
2018-11-14T02:45:17.314Z,8.13
2018-11-14T02:47:46.300Z,10.57
2018-11-14T02:50:16.998Z,6.40
2018-11-14T02:52:45.576Z,7.30
2018-11-14T02:55:15.634Z,16.27
2018-11-14T02:57:44.532Z,7.30
2018-11-14T03:00:21.821Z,10.50
2018-11-14T03:02:50.726Z,4.20
2018-11-14T03:05:20.206Z,4.30
2018-11-14T03:07:49.008Z,10.23
2018-11-14T03:10:19.914Z,8.50
2018-11-14T03:12:48.732Z,5.63
2018-11-14T03:15:21.358Z,5.20
2018-11-14T03:17:53.115Z,8.73
2018-11-14T03:20:22.576Z,9.70
2018-11-14T03:22:51.473Z,8.40
2018-11-14T03:25:20.118Z,9.80
2018-11-14T03:27:49.048Z,10.10
2018-11-14T03:30:18.584Z,4.37
2018-11-14T03:32:48.241Z,7.10
2018-11-14T03:35:16.826Z,4.50
2018-11-14T03:37:45.639Z,8.47
2018-11-14T03:40:15.416Z,7.30
2018-11-14T03:42:44.228Z,9.70
2018-11-14T03:45:14.250Z,7.13
2018-11-14T03:47:43.235Z,5.93
2018-11-14T03:50:11.996Z,5.97
2018-11-14T03:52:41.004Z,17.97
2018-11-14T03:55:09.544Z,8.90
2018-11-14T03:57:38.328Z,6.00
2018-11-14T04:00:10.459Z,11.57
2018-11-14T04:02:39.250Z,11.33
2018-11-14T04:05:08.523Z,13.47
2018-11-14T04:07:37.429Z,8.80
2018-11-14T04:10:07.150Z,15.80
2018-11-14T04:12:36.064Z,15.70
2018-11-14T04:15:05.942Z,6.90
2018-11-14T04:17:35.243Z,7.27
2018-11-14T04:20:03.852Z,6.57
2018-11-14T04:22:32.626Z,10.43
2018-11-14T04:25:01.129Z,9.90
2018-11-14T04:27:29.986Z,6.03
2018-11-14T04:29:58.981Z,7.00
2018-11-14T04:32:28.025Z,13.80
2018-11-14T04:34:57.261Z,13.50
2018-11-14T04:37:25.887Z,15.03
2018-11-14T04:39:54.412Z,6.97
2018-11-14T04:42:23.111Z,13.33
2018-11-14T04:44:52.081Z,8.10
2018-11-14T04:47:21.456Z,9.33
2018-11-14T04:49:50.270Z,5.73
2018-11-14T04:52:19.312Z,4.23
2018-11-14T04:54:48.011Z,11.13
2018-11-14T04:57:16.522Z,5.53
2018-11-14T04:59:45.365Z,10.00
2018-11-14T05:02:14.068Z,8.50
2018-11-14T05:04:42.709Z,9.90
2018-11-14T05:07:11.623Z,9.63
2018-11-14T05:09:40.197Z,9.00
2018-11-14T05:12:09.002Z,9.93
2018-11-14T05:14:37.590Z,6.97
2018-11-14T05:17:08.435Z,7.93
2018-11-14T05:19:37.362Z,6.30
2018-11-14T05:22:06.405Z,6.93
2018-11-14T05:24:35.804Z,10.40
2018-11-14T05:27:04.821Z,8.03
2018-11-14T05:29:35.221Z,7.30
2018-11-14T05:32:04.091Z,9.23
2018-11-14T05:34:32.854Z,11.73
2018-11-14T05:37:01.691Z,4.20
2018-11-14T05:39:30.376Z,10.03
2018-11-14T05:41:59.674Z,11.93
2018-11-14T05:44:28.781Z,7.50
2018-11-14T05:46:57.655Z,8.60
2018-11-14T05:49:26.181Z,11.03
2018-11-14T05:51:54.918Z,7.60
2018-11-14T05:54:23.757Z,6.47
2018-11-14T05:56:52.636Z,10.40
2018-11-14T05:59:21.393Z,9.57
2018-11-14T06:01:50.204Z,17.50
2018-11-14T06:04:18.721Z,9.53
2018-11-14T06:06:47.625Z,9.27
2018-11-14T06:09:16.189Z,10.30
2018-11-14T06:11:45.065Z,8.80
2018-11-14T06:14:13.797Z,12.47
2018-11-14T06:16:42.928Z,10.80
2018-11-14T06:19:11.814Z,10.20
2018-11-14T06:21:41.095Z,10.13
2018-11-14T06:24:10.619Z,6.00
2018-11-14T06:26:39.273Z,12.30
2018-11-14T06:29:08.013Z,5.50
2018-11-14T06:31:36.628Z,9.47
2018-11-14T06:34:06.182Z,11.27
2018-11-14T06:36:34.687Z,4.70
2018-11-14T06:39:03.620Z,8.77
2018-11-14T06:41:33.024Z,7.37
2018-11-14T06:44:02.151Z,7.90
2018-11-14T06:46:30.807Z,12.10
2018-11-14T06:48:59.536Z,9.80
2018-11-14T06:51:28.085Z,10.23
2018-11-14T06:53:57.522Z,10.80
2018-11-14T06:56:27.093Z,9.80
2018-11-14T06:58:56.667Z,13.03
2018-11-14T07:01:25.631Z,10.70
2018-11-14T07:03:54.202Z,8.83
2018-11-14T07:06:23.039Z,10.17
2018-11-14T07:08:51.699Z,11.67
2018-11-14T07:11:20.895Z,8.17
2018-11-14T07:13:49.435Z,5.90
2018-11-14T07:16:19.721Z,6.73
2018-11-14T07:18:49.640Z,6.63
2018-11-14T07:21:19.595Z,6.67
2018-11-14T07:23:48.160Z,13.33
2018-11-14T07:26:17.563Z,12.90
2018-11-14T07:28:46.087Z,9.90
2018-11-14T07:31:15.182Z,16.20
2018-11-14T07:33:44.386Z,6.87
2018-11-14T07:36:13.453Z,10.00
2018-11-14T07:38:47.093Z,6.60
2018-11-14T07:41:21.791Z,6.40
2018-11-14T07:43:50.334Z,11.13
2018-11-14T07:46:19.784Z,6.97
2018-11-14T07:48:49.385Z,14.83
2018-11-14T07:51:18.906Z,11.40
2018-11-14T07:53:47.748Z,9.33
2018-11-14T07:56:17.044Z,8.10
2018-11-14T07:58:46.346Z,9.30
2018-11-14T08:01:15.623Z,10.00
2018-11-14T08:03:46.773Z,7.63
2018-11-14T08:06:16.880Z,6.07
2018-11-14T08:08:46.561Z,13.53
2018-11-14T08:11:16.094Z,12.20
2018-11-14T08:13:46.655Z,20.37
2018-11-14T08:16:15.206Z,6.60
2018-11-14T08:18:44.245Z,9.20
2018-11-14T08:21:12.784Z,11.27
2018-11-14T08:23:41.530Z,13.60
2018-11-14T08:26:10.164Z,7.50
2018-11-14T08:28:38.950Z,10.93
2018-11-14T08:31:07.668Z,8.30
2018-11-14T08:33:36.200Z,8.77
2018-11-14T08:36:05.416Z,7.97
2018-11-14T08:38:34.661Z,12.03
2018-11-14T08:41:03.420Z,6.90
2018-11-14T08:43:32.143Z,16.40
2018-11-14T08:46:00.720Z,9.80
2018-11-14T08:48:29.512Z,12.13
2018-11-14T08:50:58.798Z,15.40
2018-11-14T08:53:27.682Z,13.93
2018-11-14T08:55:56.296Z,8.10
2018-11-14T08:58:24.998Z,10.93
2018-11-14T09:00:54.142Z,10.00
2018-11-14T09:03:22.778Z,9.10
2018-11-14T09:05:51.414Z,9.63
2018-11-14T09:08:20.137Z,9.90
2018-11-14T09:10:49.135Z,13.87
2018-11-14T09:13:18.529Z,6.33
2018-11-14T09:15:47.766Z,5.80
2018-11-14T09:18:17.087Z,9.80
2018-11-14T09:20:45.862Z,14.23
2018-11-14T09:23:15.264Z,11.70
2018-11-14T09:25:44.220Z,13.93
2018-11-14T09:28:13.315Z,12.33
2018-11-14T09:30:42.758Z,10.47
2018-11-14T09:33:11.333Z,8.00
2018-11-14T09:35:39.880Z,14.10
2018-11-14T09:38:08.842Z,15.13
2018-11-14T09:40:37.565Z,7.07
2018-11-14T09:43:06.166Z,21.40
2018-11-14T09:45:35.334Z,9.07
2018-11-14T09:48:03.958Z,15.53
2018-11-14T09:50:33.342Z,4.30
2018-11-14T09:53:03.368Z,9.97
2018-11-14T09:55:32.131Z,4.30
2018-11-14T09:58:00.751Z,6.43
2018-11-14T10:00:31.413Z,7.67
2018-11-14T10:03:04.363Z,7.90
2018-11-14T10:05:33.696Z,18.20
2018-11-14T10:08:02.691Z,6.97
2018-11-14T10:10:31.622Z,14.47
2018-11-14T10:13:00.853Z,14.10
2018-11-14T10:15:29.820Z,15.60
2018-11-14T10:17:58.919Z,9.57
2018-11-14T10:20:27.783Z,6.43
2018-11-14T10:22:56.396Z,13.93
2018-11-14T10:25:25.740Z,8.50
2018-11-14T10:27:54.296Z,16.43
2018-11-14T10:30:27.333Z,10.53
2018-11-14T10:32:56.118Z,10.00
2018-11-14T10:35:24.684Z,10.20
2018-11-14T10:37:53.346Z,6.37
2018-11-14T10:40:25.556Z,13.23
2018-11-14T10:42:55.646Z,11.93
2018-11-14T10:45:25.678Z,13.90
2018-11-14T10:47:55.835Z,14.77
2018-11-14T10:50:25.805Z,7.67
2018-11-14T10:52:54.839Z,20.93
2018-11-14T10:55:24.399Z,9.37
2018-11-14T10:57:53.632Z,7.73
2018-11-14T11:00:29.784Z,10.80
2018-11-14T11:03:05.142Z,11.43
2018-11-14T11:05:44.545Z,15.57
2018-11-14T11:08:19.762Z,5.93
2018-11-14T11:10:53.825Z,14.47
2018-11-14T11:13:27.771Z,14.20
2018-11-14T11:16:01.981Z,14.37
2018-11-14T11:18:34.625Z,12.40
2018-11-14T11:21:03.715Z,13.00
2018-11-14T11:23:32.600Z,11.00
2018-11-14T11:26:01.826Z,15.47
2018-11-14T11:28:30.396Z,11.37
2018-11-14T11:30:59.855Z,16.20
2018-11-14T11:33:28.420Z,10.80
2018-11-14T11:35:58.419Z,23.53
2018-11-14T11:38:27.792Z,10.47
2018-11-14T11:40:56.945Z,12.33
2018-11-14T11:43:25.586Z,9.07
2018-11-14T11:45:54.931Z,18.33
2018-11-14T11:48:23.658Z,24.80
2018-11-14T11:50:52.392Z,17.17
2018-11-14T11:53:21.092Z,12.70
2018-11-14T11:55:51.183Z,14.73
2018-11-14T11:58:19.798Z,11.40
2018-11-14T12:00:49.490Z,12.80
2018-11-14T12:03:18.006Z,17.00
2018-11-14T12:05:46.555Z,7.47
2018-11-14T12:08:15.121Z,13.53
2018-11-14T12:10:44.220Z,8.20
2018-11-14T12:13:13.067Z,15.30
2018-11-14T12:15:42.504Z,8.40
2018-11-14T12:18:11.469Z,12.53
2018-11-14T12:20:40.496Z,22.40
2018-11-14T12:23:09.598Z,11.50
2018-11-14T12:25:38.699Z,7.70
2018-11-14T12:28:07.456Z,10.70
2018-11-14T12:30:36.792Z,18.00
2018-11-14T12:33:05.383Z,9.13
2018-11-14T12:35:34.291Z,10.23
2018-11-14T12:38:02.838Z,17.70
2018-11-14T12:40:31.825Z,15.00
2018-11-14T12:43:00.383Z,12.20
2018-11-14T12:45:29.605Z,11.70
2018-11-14T12:47:58.378Z,6.70
2018-11-14T12:50:27.166Z,16.73
2018-11-14T12:52:55.764Z,18.07
2018-11-14T12:55:24.761Z,16.00
2018-11-14T12:57:53.312Z,12.03
2018-11-14T13:00:22.576Z,14.40
2018-11-14T13:02:51.092Z,9.80
2018-11-14T13:05:20.136Z,16.60
2018-11-14T13:07:48.978Z,16.17
2018-11-14T13:10:19.279Z,10.43
2018-11-14T13:12:49.013Z,5.93
2018-11-14T13:15:19.731Z,10.00
2018-11-14T13:17:49.814Z,13.90
2018-11-14T13:20:20.721Z,8.87
2018-11-14T13:22:49.472Z,10.63
2018-11-14T13:25:18.069Z,6.00
2018-11-14T13:27:47.679Z,11.77
2018-11-14T13:30:18.065Z,7.03
2018-11-14T13:32:47.499Z,12.60
2018-11-14T13:35:18.231Z,13.87
2018-11-14T13:37:49.592Z,15.00
2018-11-14T13:40:19.096Z,7.20
2018-11-14T13:42:49.134Z,18.43
2018-11-14T13:45:19.242Z,9.90
2018-11-14T13:47:48.924Z,13.27
2018-11-14T13:50:20.297Z,7.60
2018-11-14T13:52:49.673Z,9.70
2018-11-14T13:55:20.925Z,8.30
2018-11-14T13:57:51.174Z,9.70
2018-11-14T14:00:22.430Z,8.77
2018-11-14T14:02:52.230Z,10.27
2018-11-14T14:05:22.370Z,10.90
2018-11-14T14:07:50.913Z,9.23
2018-11-14T14:10:21.487Z,20.87
2018-11-14T14:12:52.069Z,14.60
2018-11-14T14:15:22.959Z,9.90
2018-11-14T14:17:52.011Z,13.97
2018-11-14T14:20:22.394Z,6.33
2018-11-14T14:22:51.055Z,9.13
2018-11-14T14:25:22.008Z,11.17
2018-11-14T14:27:50.666Z,10.23
2018-11-14T14:30:21.437Z,7.97
2018-11-14T14:32:50.412Z,11.97
2018-11-14T14:35:21.600Z,13.93
2018-11-14T14:37:50.496Z,12.53
2018-11-14T14:40:22.292Z,9.33
2018-11-14T14:42:51.310Z,8.57
2018-11-14T14:45:25.069Z,13.13
2018-11-14T14:47:54.431Z,9.73
2018-11-14T14:50:23.207Z,8.30
2018-11-14T14:52:52.382Z,7.33
2018-11-14T14:55:23.601Z,16.97
2018-11-14T14:57:52.564Z,11.07
2018-11-14T15:00:23.601Z,11.17
2018-11-14T15:02:53.822Z,13.30
2018-11-14T15:05:23.887Z,11.63
2018-11-14T15:07:52.770Z,12.70
2018-11-14T15:10:22.936Z,8.80
2018-11-14T15:12:51.816Z,16.20
2018-11-14T15:15:22.861Z,9.20
2018-11-14T15:17:52.436Z,14.10
2018-11-14T15:20:22.531Z,11.90
2018-11-14T15:22:58.592Z,14.30
2018-11-14T15:25:27.728Z,14.83
2018-11-14T15:27:56.407Z,17.90
2018-11-14T15:30:26.944Z,15.07
2018-11-14T15:32:57.129Z,10.53
2018-11-14T15:35:26.336Z,9.03
2018-11-14T15:37:54.926Z,11.57
2018-11-14T15:40:26.433Z,11.00
2018-11-14T15:42:55.374Z,7.27
2018-11-14T15:45:27.589Z,14.60
2018-11-14T15:47:56.408Z,7.17
2018-11-14T15:50:27.711Z,7.97
2018-11-14T15:52:57.483Z,12.47
2018-11-14T15:55:26.724Z,17.50
2018-11-14T15:57:55.814Z,10.33
2018-11-14T16:00:28.910Z,5.27
2018-11-14T16:02:58.387Z,12.43
2018-11-14T16:05:29.713Z,15.47
2018-11-14T16:07:59.511Z,11.80
2018-11-14T16:10:30.096Z,20.03
2018-11-14T16:12:59.800Z,12.33
2018-11-14T16:15:32.640Z,25.17
2018-11-14T16:18:02.143Z,26.13
2018-11-14T16:20:31.424Z,23.30
2018-11-14T16:23:00.013Z,16.47
2018-11-14T16:25:29.208Z,12.40
2018-11-14T16:27:59.386Z,18.20
2018-11-14T16:30:30.043Z,14.60
2018-11-14T16:33:00.563Z,17.33
2018-11-14T16:35:29.322Z,15.90
2018-11-14T16:37:57.931Z,14.10
2018-11-14T16:40:28.239Z,19.93
2018-11-14T16:42:57.841Z,17.83
2018-11-14T16:45:27.056Z,19.83
2018-11-14T16:47:55.998Z,21.60
2018-11-14T16:50:25.077Z,23.30
2018-11-14T16:52:53.939Z,35.40
2018-11-14T16:55:23.036Z,24.60
2018-11-14T16:57:52.948Z,21.90
2018-11-14T17:00:22.761Z,18.57
2018-11-14T17:02:51.744Z,20.00
2018-11-14T17:05:20.944Z,19.70
2018-11-14T17:07:49.956Z,22.47
2018-11-14T17:10:20.001Z,31.13
2018-11-14T17:12:50.590Z,23.83
2018-11-14T17:15:21.480Z,17.73
2018-11-14T17:17:52.923Z,25.90
2018-11-14T17:20:22.656Z,20.37
2018-11-14T17:22:53.790Z,21.43
2018-11-14T17:25:22.782Z,17.57
2018-11-14T17:27:53.228Z,21.30
2018-11-14T17:30:26.249Z,32.97
2018-11-14T17:32:58.692Z,26.60
2018-11-14T17:35:28.964Z,22.07
2018-11-14T17:37:59.379Z,28.60
2018-11-14T17:40:30.034Z,28.90
2018-11-14T17:43:02.839Z,27.67
2018-11-14T17:45:32.367Z,35.03
2018-11-14T17:48:03.431Z,32.33
2018-11-14T17:50:34.271Z,38.93
2018-11-14T17:53:04.585Z,31.73
2018-11-14T17:55:33.276Z,21.10
2018-11-14T17:58:05.306Z,23.33
2018-11-14T18:00:33.969Z,30.33
2018-11-14T18:03:04.621Z,29.00
2018-11-14T18:05:34.107Z,22.90
2018-11-14T18:08:03.424Z,21.20
2018-11-14T18:10:32.447Z,18.00
2018-11-14T18:13:02.677Z,20.83
2018-11-14T18:15:31.889Z,19.10
2018-11-14T18:18:01.506Z,18.90
2018-11-14T18:20:31.735Z,27.83
2018-11-14T18:23:00.580Z,21.47
2018-11-14T18:25:30.680Z,33.43
2018-11-14T18:28:00.438Z,27.07
2018-11-14T18:30:31.047Z,28.33
2018-11-14T18:33:00.947Z,28.17
2018-11-14T18:35:29.696Z,19.77
2018-11-14T18:38:00.303Z,22.27
2018-11-14T18:40:31.878Z,28.20
2018-11-14T18:43:00.719Z,21.77
2018-11-14T18:45:32.414Z,23.50
2018-11-14T18:48:02.408Z,26.60
2018-11-14T18:50:31.373Z,27.50
2018-11-14T18:53:02.159Z,23.37
2018-11-14T18:55:32.422Z,19.20
2018-11-14T18:58:02.495Z,24.70
2018-11-14T19:00:33.068Z,25.73
2018-11-14T19:03:02.710Z,13.67
2018-11-14T19:05:31.262Z,28.07
2018-11-14T19:08:00.271Z,21.83
2018-11-14T19:10:31.801Z,26.87
2018-11-14T19:13:02.428Z,24.27
2018-11-14T19:15:33.754Z,28.67
2018-11-14T19:18:04.629Z,23.40
2018-11-14T19:20:34.332Z,21.40
2018-11-14T19:23:04.933Z,29.07
2018-11-14T19:25:35.588Z,33.60
2018-11-14T19:28:05.918Z,30.53
2018-11-14T19:30:35.990Z,24.67
2018-11-14T19:33:05.189Z,25.47
2018-11-14T19:35:34.345Z,24.63
2018-11-14T19:38:03.788Z,19.97
2018-11-14T19:40:33.776Z,24.60
2018-11-14T19:43:04.242Z,28.93
2018-11-14T19:45:34.414Z,20.17
2018-11-14T19:48:03.628Z,31.03
2018-11-14T19:50:32.425Z,30.00
2018-11-14T19:53:00.915Z,33.77
2018-11-14T19:55:30.369Z,31.17
2018-11-14T19:58:00.866Z,27.73
2018-11-14T20:00:31.489Z,27.80
2018-11-14T20:03:00.554Z,26.90
2018-11-14T20:05:30.410Z,23.53
2018-11-14T20:07:59.140Z,27.90
2018-11-14T20:10:30.079Z,30.53
2018-11-14T20:12:59.999Z,35.87
2018-11-14T20:15:31.089Z,25.87
2018-11-14T20:17:59.718Z,27.97
2018-11-14T20:20:30.742Z,24.63
2018-11-14T20:23:00.089Z,23.10
2018-11-14T20:25:29.495Z,28.80
2018-11-14T20:27:58.159Z,25.77
2018-11-14T20:30:28.725Z,26.73
2018-11-14T20:32:58.689Z,23.23
2018-11-14T20:35:28.355Z,23.37
2018-11-14T20:37:57.007Z,23.60
2018-11-14T20:40:26.515Z,23.23
2018-11-14T20:42:55.594Z,19.10
2018-11-14T20:45:28.786Z,19.13
2018-11-14T20:47:58.195Z,18.93
2018-11-14T20:50:27.687Z,15.10
2018-11-14T20:53:02.460Z,23.47
2018-11-14T20:55:32.288Z,21.53
2018-11-14T20:58:02.357Z,22.93
2018-11-14T21:00:33.134Z,32.53
2018-11-14T21:03:02.287Z,23.23
2018-11-14T21:05:31.551Z,24.53
2018-11-14T21:08:00.793Z,21.30
2018-11-14T21:10:31.095Z,22.27
2018-11-14T21:13:00.965Z,17.50
2018-11-14T21:15:34.665Z,22.73
2018-11-14T21:18:04.677Z,28.90
2018-11-14T21:20:34.444Z,25.17
2018-11-14T21:23:03.306Z,20.70
2018-11-14T21:25:31.868Z,20.57
2018-11-14T21:28:00.743Z,24.63
2018-11-14T21:30:30.230Z,21.60
2018-11-14T21:32:59.088Z,22.30
2018-11-14T21:35:32.240Z,21.07
2018-11-14T21:38:02.333Z,16.83
2018-11-14T21:40:31.581Z,22.93
2018-11-14T21:43:02.369Z,25.50
2018-11-14T21:45:31.326Z,20.30
2018-11-14T21:48:06.289Z,21.53
2018-11-14T21:50:34.912Z,20.10
2018-11-14T21:53:03.676Z,21.97
2018-11-14T21:55:32.215Z,21.43
2018-11-14T21:58:01.240Z,17.73
2018-11-14T22:00:32.466Z,17.30
2018-11-14T22:03:01.933Z,19.13
2018-11-14T22:05:31.079Z,22.13
2018-11-14T22:07:59.646Z,16.00
2018-11-14T22:10:28.455Z,19.07
2018-11-14T22:12:56.979Z,25.90
2018-11-14T22:15:27.382Z,17.17
2018-11-14T22:17:55.986Z,22.70
2018-11-14T22:20:26.271Z,20.30
2018-11-14T22:22:55.265Z,27.27
2018-11-14T22:25:25.659Z,31.30
2018-11-14T22:27:55.804Z,23.00
2018-11-14T22:30:27.413Z,18.70
2018-11-14T22:32:56.420Z,13.27
2018-11-14T22:35:26.266Z,25.20
2018-11-14T22:37:55.585Z,25.47
2018-11-14T22:40:28.066Z,18.67
2018-11-14T22:42:57.088Z,17.47
2018-11-14T22:45:27.030Z,20.27
2018-11-14T22:47:56.025Z,22.90
2018-11-14T22:50:26.401Z,16.87
2018-11-14T22:52:55.789Z,25.13
2018-11-14T22:55:25.792Z,14.77
2018-11-14T22:57:54.975Z,16.20
2018-11-14T23:00:27.459Z,19.23
2018-11-14T23:02:57.611Z,15.47
2018-11-14T23:05:26.307Z,20.87
2018-11-14T23:07:55.676Z,23.80
2018-11-14T23:10:25.102Z,54.80
2018-11-14T23:12:53.891Z,30.77
2018-11-14T23:15:23.416Z,40.13
2018-11-14T23:17:52.572Z,25.20
2018-11-14T23:20:21.890Z,23.53
2018-11-14T23:22:52.281Z,18.63
2018-11-14T23:25:21.489Z,16.37
2018-11-14T23:27:51.662Z,17.13
2018-11-14T23:30:21.620Z,30.53
2018-11-14T23:32:52.897Z,15.93
2018-11-14T23:35:23.922Z,19.83
2018-11-14T23:37:55.221Z,13.37
2018-11-14T23:40:24.749Z,15.87
2018-11-14T23:42:53.453Z,21.63
2018-11-14T23:45:23.082Z,19.30
2018-11-14T23:47:52.997Z,15.60
2018-11-14T23:50:24.265Z,18.27
2018-11-14T23:52:54.070Z,20.07
2018-11-14T23:55:23.465Z,17.47
2018-11-14T23:57:53.244Z,17.83
